sensor_id;sensor_type;location;lat;lon;timestamp;pressure;altitude;pressure_sealevel;temperature;humidity
46718;BME280;32448;44.960;-0.698;2023-01-27T00:01:08;102025.97;;;3.65;100.00
46718;BME280;32448;44.960;-0.698;2023-01-27T00:03:35;102009.09;;;3.57;100.00
46718;BME280;32448;44.960;-0.698;2023-01-27T00:06:03;102028.66;;;3.66;100.00
46718;BME280;32448;44.960;-0.698;2023-01-27T00:08:32;102027.50;;;3.75;100.00
46718;BME280;32448;44.960;-0.698;2023-01-27T00:11:00;102020.75;;;3.63;100.00
46718;BME280;32448;44.960;-0.698;2023-01-27T00:13:46;102039.63;;;3.62;100.00
46718;BME280;32448;44.960;-0.698;2023-01-27T00:16:13;102030.19;;;3.63;100.00
46718;BME280;32448;44.960;-0.698;2023-01-27T00:18:40;102032.94;;;3.66;100.00
46718;BME280;32448;44.960;-0.698;2023-01-27T00:21:08;102031.06;;;3.63;100.00
46718;BME280;32448;44.960;-0.698;2023-01-27T00:23:54;102033.56;;;3.62;100.00
46718;BME280;32448;44.960;-0.698;2023-01-27T00:26:41;102021.22;;;3.58;100.00
46718;BME280;32448;44.960;-0.698;2023-01-27T00:29:08;102020.22;;;3.56;100.00
46718;BME280;32448;44.960;-0.698;2023-01-27T00:31:35;102027.50;;;3.61;100.00
46718;BME280;32448;44.960;-0.698;2023-01-27T00:34:21;102014.06;;;3.54;100.00
46718;BME280;32448;44.960;-0.698;2023-01-27T00:36:49;102028.56;;;3.65;100.00
46718;BME280;32448;44.960;-0.698;2023-01-27T00:39:16;102013.66;;;3.61;100.00
46718;BME280;32448;44.960;-0.698;2023-01-27T00:41:44;102015.75;;;3.66;100.00
46718;BME280;32448;44.960;-0.698;2023-01-27T00:44:11;102012.66;;;3.59;100.00
46718;BME280;32448;44.960;-0.698;2023-01-27T00:46:41;102001.63;;;3.61;100.00
46718;BME280;32448;44.960;-0.698;2023-01-27T00:49:10;102013.47;;;3.71;100.00
46718;BME280;32448;44.960;-0.698;2023-01-27T00:51:39;102004.81;;;3.71;100.00
46718;BME280;32448;44.960;-0.698;2023-01-27T00:54:07;102004.72;;;3.69;100.00
46718;BME280;32448;44.960;-0.698;2023-01-27T00:56:35;102011.47;;;3.80;100.00
46718;BME280;32448;44.960;-0.698;2023-01-27T00:59:03;101998.84;;;3.72;100.00
46718;BME280;32448;44.960;-0.698;2023-01-27T01:01:31;101994.94;;;3.78;100.00
46718;BME280;32448;44.960;-0.698;2023-01-27T01:04:00;102001.13;;;3.80;100.00
46718;BME280;32448;44.960;-0.698;2023-01-27T01:06:29;101988.09;;;3.79;100.00
46718;BME280;32448;44.960;-0.698;2023-01-27T01:08:58;102000.31;;;3.81;100.00
46718;BME280;32448;44.960;-0.698;2023-01-27T01:11:26;101988.50;;;3.85;100.00
46718;BME280;32448;44.960;-0.698;2023-01-27T01:13:53;101987.97;;;3.90;100.00
46718;BME280;32448;44.960;-0.698;2023-01-27T01:16:23;102006.28;;;3.93;100.00
46718;BME280;32448;44.960;-0.698;2023-01-27T01:18:51;101977.75;;;3.79;100.00
46718;BME280;32448;44.960;-0.698;2023-01-27T01:21:19;101995.34;;;3.97;100.00
46718;BME280;32448;44.960;-0.698;2023-01-27T01:23:46;101987.19;;;3.91;100.00
46718;BME280;32448;44.960;-0.698;2023-01-27T01:26:15;101988.75;;;3.89;100.00
46718;BME280;32448;44.960;-0.698;2023-01-27T01:28:44;101990.97;;;3.96;100.00
46718;BME280;32448;44.960;-0.698;2023-01-27T01:31:17;101990.97;;;3.96;100.00
46718;BME280;32448;44.960;-0.698;2023-01-27T01:33:45;101997.09;;;3.98;100.00
46718;BME280;32448;44.960;-0.698;2023-01-27T01:36:15;101990.84;;;3.95;100.00
46718;BME280;32448;44.960;-0.698;2023-01-27T01:38:43;101981.69;;;4.00;100.00
46718;BME280;32448;44.960;-0.698;2023-01-27T01:41:18;101989.53;;;4.01;100.00
46718;BME280;32448;44.960;-0.698;2023-01-27T01:43:47;101979.97;;;4.00;100.00
46718;BME280;32448;44.960;-0.698;2023-01-27T01:46:16;101984.25;;;4.00;100.00
46718;BME280;32448;44.960;-0.698;2023-01-27T01:54:03;101992.66;;;3.96;100.00
46718;BME280;32448;44.960;-0.698;2023-01-27T01:57:36;101988.44;;;3.98;100.00
46718;BME280;32448;44.960;-0.698;2023-01-27T01:59:32;101990.06;;;3.96;100.00
46718;BME280;32448;44.960;-0.698;2023-01-27T02:02:04;101988.06;;;3.92;100.00
46718;BME280;32448;44.960;-0.698;2023-01-27T02:04:37;101994.25;;;3.94;100.00
46718;BME280;32448;44.960;-0.698;2023-01-27T02:07:12;101986.28;;;3.91;100.00
46718;BME280;32448;44.960;-0.698;2023-01-27T02:09:43;101988.75;;;3.89;100.00
46718;BME280;32448;44.960;-0.698;2023-01-27T02:12:10;101983.19;;;3.96;100.00
46718;BME280;32448;44.960;-0.698;2023-01-27T02:14:38;101992.03;;;3.87;100.00
46718;BME280;32448;44.960;-0.698;2023-01-27T02:17:08;101985.47;;;3.92;100.00
46718;BME280;32448;44.960;-0.698;2023-01-27T02:22:17;101988.16;;;3.93;100.00
46718;BME280;32448;44.960;-0.698;2023-01-27T02:24:52;101986.28;;;3.91;100.00
46718;BME280;32448;44.960;-0.698;2023-01-27T02:27:24;101967.28;;;3.77;100.00
46718;BME280;32448;44.960;-0.698;2023-01-27T02:29:52;101992.44;;;3.93;100.00
46718;BME280;32448;44.960;-0.698;2023-01-27T02:32:26;101979.13;;;3.87;100.00
46718;BME280;32448;44.960;-0.698;2023-01-27T02:34:55;101981.09;;;3.91;100.00
46718;BME280;32448;44.960;-0.698;2023-01-27T02:37:27;101962.53;;;3.83;100.00
46718;BME280;32448;44.960;-0.698;2023-01-27T02:39:57;101978.06;;;3.83;100.00
46718;BME280;32448;44.960;-0.698;2023-01-27T02:42:28;101982.81;;;3.77;100.00
46718;BME280;32448;44.960;-0.698;2023-01-27T02:44:55;101978.06;;;3.83;100.00
46718;BME280;32448;44.960;-0.698;2023-01-27T02:47:23;101976.81;;;3.91;100.00
46718;BME280;32448;44.960;-0.698;2023-01-27T02:49:50;101975.66;;;3.86;100.00
46718;BME280;32448;44.960;-0.698;2023-01-27T02:52:21;101962.63;;;3.85;100.00
46718;BME280;32448;44.960;-0.698;2023-01-27T02:54:48;101977.34;;;3.86;100.00
46718;BME280;32448;44.960;-0.698;2023-01-27T02:57:17;101973.16;;;3.88;100.00
46718;BME280;32448;44.960;-0.698;2023-01-27T03:00:05;101966.13;;;3.85;100.00
46718;BME280;32448;44.960;-0.698;2023-01-27T03:02:32;101973.78;;;3.84;100.00
46718;BME280;32448;44.960;-0.698;2023-01-27T03:05:01;101970.38;;;3.85;100.00
46718;BME280;32448;44.960;-0.698;2023-01-27T03:07:29;101962.53;;;3.83;100.00
46718;BME280;32448;44.960;-0.698;2023-01-27T03:09:59;101955.09;;;3.75;100.00
46718;BME280;32448;44.960;-0.698;2023-01-27T03:12:28;101977.25;;;3.84;100.00
46718;BME280;32448;44.960;-0.698;2023-01-27T03:14:55;101976.16;;;3.81;100.00
46718;BME280;32448;44.960;-0.698;2023-01-27T03:17:42;101974.66;;;3.84;100.00
46718;BME280;32448;44.960;-0.698;2023-01-27T03:20:28;101969.28;;;3.94;100.00
46718;BME280;32448;44.960;-0.698;2023-01-27T03:22:55;101976.22;;;3.95;100.00
46718;BME280;32448;44.960;-0.698;2023-01-27T03:25:24;101976.50;;;4.00;100.00
46718;BME280;32448;44.960;-0.698;2023-01-27T03:27:55;101973.91;;;4.00;100.00
46718;BME280;32448;44.960;-0.698;2023-01-27T03:31:04;101963.19;;;3.94;100.00
46718;BME280;32448;44.960;-0.698;2023-01-27T03:33:46;101960.09;;;3.99;100.00
46718;BME280;32448;44.960;-0.698;2023-01-27T03:36:34;101971.53;;;4.03;100.00
46718;BME280;32448;44.960;-0.698;2023-01-27T03:39:21;101966.66;;;4.08;100.00
46718;BME280;32448;44.960;-0.698;2023-01-27T03:42:07;101962.94;;;4.17;100.00
46718;BME280;32448;44.960;-0.698;2023-01-27T03:44:55;101959.25;;;4.14;100.00
46718;BME280;32448;44.960;-0.698;2023-01-27T03:47:42;101958.03;;;4.22;100.00
46718;BME280;32448;44.960;-0.698;2023-01-27T03:50:10;101953.09;;;4.12;100.00
46718;BME280;32448;44.960;-0.698;2023-01-27T03:52:45;101950.69;;;4.15;100.00
46718;BME280;32448;44.960;-0.698;2023-01-27T03:55:30;101932.72;;;4.03;100.00
46718;BME280;32448;44.960;-0.698;2023-01-27T03:57:57;101920.13;;;3.94;100.00
46718;BME280;32448;44.960;-0.698;2023-01-27T04:00:40;101961.25;;;4.18;100.00
46718;BME280;32448;44.960;-0.698;2023-01-27T04:03:07;101956.34;;;4.22;100.00
46718;BME280;32448;44.960;-0.698;2023-01-27T04:05:54;101954.41;;;4.33;100.00
46718;BME280;32448;44.960;-0.698;2023-01-27T04:08:43;101948.88;;;4.27;100.00
46718;BME280;32448;44.960;-0.698;2023-01-27T04:11:10;101946.63;;;4.33;100.00
46718;BME280;32448;44.960;-0.698;2023-01-27T04:14:02;101931.00;;;4.17;100.00
46718;BME280;32448;44.960;-0.698;2023-01-27T04:16:30;101938.75;;;4.17;100.00
46718;BME280;32448;44.960;-0.698;2023-01-27T04:18:58;101952.59;;;4.32;100.00
46718;BME280;32448;44.960;-0.698;2023-01-27T04:21:26;101944.69;;;4.29;100.00
46718;BME280;32448;44.960;-0.698;2023-01-27T04:23:53;101942.75;;;4.39;100.00
46718;BME280;32448;44.960;-0.698;2023-01-27T04:26:22;101943.78;;;4.43;100.00
46718;BME280;32448;44.960;-0.698;2023-01-27T04:28:50;101942.19;;;4.45;100.00
46718;BME280;32448;44.960;-0.698;2023-01-27T04:31:18;101950.59;;;4.41;100.00
46718;BME280;32448;44.960;-0.698;2023-01-27T04:33:45;101958.81;;;4.49;100.00
46718;BME280;32448;44.960;-0.698;2023-01-27T04:36:12;101952.84;;;4.50;100.00
46718;BME280;32448;44.960;-0.698;2023-01-27T04:38:43;101955.44;;;4.50;100.00
46718;BME280;32448;44.960;-0.698;2023-01-27T04:41:12;101953.84;;;4.52;100.00
46718;BME280;32448;44.960;-0.698;2023-01-27T04:43:40;101956.97;;;4.61;100.00
46718;BME280;32448;44.960;-0.698;2023-01-27T04:46:07;101952.94;;;4.51;100.00
46718;BME280;32448;44.960;-0.698;2023-01-27T04:48:35;101954.72;;;4.52;100.00
46718;BME280;32448;44.960;-0.698;2023-01-27T04:51:03;101947.75;;;4.51;100.00
46718;BME280;32448;44.960;-0.698;2023-01-27T04:53:30;101946.63;;;4.61;100.00
46718;BME280;32448;44.960;-0.698;2023-01-27T04:56:05;101949.00;;;4.58;100.00
46718;BME280;32448;44.960;-0.698;2023-01-27T04:58:32;101941.78;;;4.52;100.00
46718;BME280;32448;44.960;-0.698;2023-01-27T05:01:00;101943.84;;;4.58;100.00
46718;BME280;32448;44.960;-0.698;2023-01-27T05:03:27;101946.31;;;4.56;100.00
46718;BME280;32448;44.960;-0.698;2023-01-27T05:05:54;101949.09;;;4.59;100.00
46718;BME280;32448;44.960;-0.698;2023-01-27T05:08:22;101955.00;;;4.57;100.00
46718;BME280;32448;44.960;-0.698;2023-01-27T05:10:49;101947.91;;;4.54;100.00
46718;BME280;32448;44.960;-0.698;2023-01-27T05:13:18;101943.75;;;4.56;100.00
46718;BME280;32448;44.960;-0.698;2023-01-27T05:15:45;101936.88;;;4.57;100.00
46718;BME280;32448;44.960;-0.698;2023-01-27T05:18:14;101944.91;;;4.61;100.00
46718;BME280;32448;44.960;-0.698;2023-01-27T05:20:41;101944.03;;;4.61;100.00
46718;BME280;32448;44.960;-0.698;2023-01-27T05:23:09;101943.94;;;4.59;100.00
46718;BME280;32448;44.960;-0.698;2023-01-27T05:25:54;101951.88;;;4.62;100.00
46718;BME280;32448;44.960;-0.698;2023-01-27T05:28:22;101942.03;;;4.57;100.00
46718;BME280;32448;44.960;-0.698;2023-01-27T05:30:49;101930.78;;;4.56;100.00
46718;BME280;32448;44.960;-0.698;2023-01-27T05:33:17;101939.84;;;4.63;100.00
46718;BME280;32448;44.960;-0.698;2023-01-27T05:35:44;101945.06;;;4.64;100.00
46718;BME280;32448;44.960;-0.698;2023-01-27T05:38:11;101933.13;;;4.52;100.00
46718;BME280;32448;44.960;-0.698;2023-01-27T05:40:39;101954.00;;;4.55;100.00
46718;BME280;32448;44.960;-0.698;2023-01-27T05:43:06;101945.44;;;4.56;100.00
46718;BME280;32448;44.960;-0.698;2023-01-27T05:45:33;101944.44;;;4.54;100.00
46718;BME280;32448;44.960;-0.698;2023-01-27T05:48:00;101944.09;;;4.48;100.00
46718;BME280;32448;44.960;-0.698;2023-01-27T05:50:28;101944.59;;;4.42;100.00
46718;BME280;32448;44.960;-0.698;2023-01-27T05:52:55;101943.00;;;4.44;100.00
46718;BME280;32448;44.960;-0.698;2023-01-27T05:55:22;101948.47;;;4.49;100.00
46718;BME280;32448;44.960;-0.698;2023-01-27T05:57:50;101955.25;;;4.47;100.00
46718;BME280;32448;44.960;-0.698;2023-01-27T06:00:18;101968.34;;;4.35;100.00
46718;BME280;32448;44.960;-0.698;2023-01-27T06:02:46;101952.34;;;4.27;100.00
46718;BME280;32448;44.960;-0.698;2023-01-27T06:05:13;101949.13;;;4.31;100.00
46718;BME280;32448;44.960;-0.698;2023-01-27T06:07:42;101959.66;;;4.34;100.00
46718;BME280;32448;44.960;-0.698;2023-01-27T06:10:10;101960.13;;;4.42;100.00
46718;BME280;32448;44.960;-0.698;2023-01-27T06:12:37;101960.97;;;4.41;100.00
46718;BME280;32448;44.960;-0.698;2023-01-27T06:15:05;101966.63;;;4.35;100.00
46718;BME280;32448;44.960;-0.698;2023-01-27T06:17:32;101957.63;;;4.29;100.00
46718;BME280;32448;44.960;-0.698;2023-01-27T06:19:59;101971.72;;;4.34;100.00
46718;BME280;32448;44.960;-0.698;2023-01-27T06:22:27;101975.16;;;4.20;100.00
46718;BME280;32448;44.960;-0.698;2023-01-27T06:24:54;101962.59;;;4.26;100.00
46718;BME280;32448;44.960;-0.698;2023-01-27T06:27:24;101957.25;;;4.10;100.00
46718;BME280;32448;44.960;-0.698;2023-01-27T06:29:52;101974.28;;;4.19;100.00
46718;BME280;32448;44.960;-0.698;2023-01-27T06:32:19;101968.91;;;4.16;100.00
46718;BME280;32448;44.960;-0.698;2023-01-27T06:34:47;101967.22;;;4.17;100.00
46718;BME280;32448;44.960;-0.698;2023-01-27T06:37:15;101979.03;;;4.26;100.00
46718;BME280;32448;44.960;-0.698;2023-01-27T06:39:42;101973.38;;;4.19;100.00
46718;BME280;32448;44.960;-0.698;2023-01-27T06:42:09;101966.41;;;4.18;100.00
46718;BME280;32448;44.960;-0.698;2023-01-27T06:44:37;101972.34;;;4.30;100.00
46718;BME280;32448;44.960;-0.698;2023-01-27T06:47:04;101973.38;;;4.19;100.00
46718;BME280;32448;44.960;-0.698;2023-01-27T06:49:32;101967.63;;;4.10;100.00
46718;BME280;32448;44.960;-0.698;2023-01-27T06:52:00;101970.72;;;4.04;100.00
46718;BME280;32448;44.960;-0.698;2023-01-27T06:54:28;101975.00;;;4.03;100.00
46718;BME280;32448;44.960;-0.698;2023-01-27T06:56:58;101987.25;;;4.06;100.00
46718;BME280;32448;44.960;-0.698;2023-01-27T06:59:26;101985.06;;;3.99;100.00
46718;BME280;32448;44.960;-0.698;2023-01-27T07:01:55;101984.66;;;4.06;100.00
46718;BME280;32448;44.960;-0.698;2023-01-27T07:04:23;101989.41;;;4.13;100.00
46718;BME280;32448;44.960;-0.698;2023-01-27T07:06:51;101985.94;;;4.13;100.00
46718;BME280;32448;44.960;-0.698;2023-01-27T07:09:19;101986.31;;;4.19;100.00
46718;BME280;32448;44.960;-0.698;2023-01-27T07:11:51;101991.44;;;4.04;100.00
46718;BME280;32448;44.960;-0.698;2023-01-27T07:14:19;101980.38;;;4.07;100.00
46718;BME280;32448;44.960;-0.698;2023-01-27T07:16:48;101983.78;;;4.06;100.00
46718;BME280;32448;44.960;-0.698;2023-01-27T07:19:16;101991.75;;;4.23;100.00
46718;BME280;32448;44.960;-0.698;2023-01-27T07:21:46;101986.38;;;4.20;100.00
46718;BME280;32448;44.960;-0.698;2023-01-27T07:24:14;101993.69;;;4.13;100.00
46718;BME280;32448;44.960;-0.698;2023-01-27T07:26:42;101982.53;;;4.14;100.00
46718;BME280;32448;44.960;-0.698;2023-01-27T07:29:12;101979.53;;;4.21;100.00
46718;BME280;32448;44.960;-0.698;2023-01-27T07:31:43;101987.72;;;4.14;100.00
46718;BME280;32448;44.960;-0.698;2023-01-27T07:34:12;101993.19;;;4.18;100.00
46718;BME280;32448;44.960;-0.698;2023-01-27T07:36:41;101997.50;;;4.32;100.00
46718;BME280;32448;44.960;-0.698;2023-01-27T07:39:09;101995.81;;;4.33;100.00
46718;BME280;32448;44.960;-0.698;2023-01-27T07:41:37;101997.34;;;4.29;100.00
46718;BME280;32448;44.960;-0.698;2023-01-27T07:44:05;101985.78;;;4.24;100.00
46718;BME280;32448;44.960;-0.698;2023-01-27T07:46:34;102004.31;;;4.30;100.00
46718;BME280;32448;44.960;-0.698;2023-01-27T07:49:03;101993.56;;;4.24;100.00
46718;BME280;32448;44.960;-0.698;2023-01-27T07:51:32;102002.97;;;4.37;100.00
46718;BME280;32448;44.960;-0.698;2023-01-27T07:54:04;102006.97;;;4.32;100.00
46718;BME280;32448;44.960;-0.698;2023-01-27T07:56:33;102003.56;;;4.33;100.00
46718;BME280;32448;44.960;-0.698;2023-01-27T07:59:03;102004.31;;;4.45;100.00
46718;BME280;32448;44.960;-0.698;2023-01-27T08:01:31;102005.38;;;4.34;100.00
46718;BME280;32448;44.960;-0.698;2023-01-27T08:03:59;102008.69;;;4.46;100.00
46718;BME280;32448;44.960;-0.698;2023-01-27T08:06:27;102008.44;;;4.42;100.00
46718;BME280;32448;44.960;-0.698;2023-01-27T08:08:55;102018.56;;;4.52;100.00
46718;BME280;32448;44.960;-0.698;2023-01-27T08:11:23;102015.47;;;4.44;100.00
46718;BME280;32448;44.960;-0.698;2023-01-27T08:13:52;102017.91;;;4.41;100.00
46718;BME280;32448;44.960;-0.698;2023-01-27T08:16:20;102012.72;;;4.41;100.00
46718;BME280;32448;44.960;-0.698;2023-01-27T08:18:48;102000.00;;;4.31;100.00
46718;BME280;32448;44.960;-0.698;2023-01-27T08:21:16;102015.06;;;4.51;100.00
46718;BME280;32448;44.960;-0.698;2023-01-27T08:23:44;102021.06;;;4.50;100.00
46718;BME280;32448;44.960;-0.698;2023-01-27T08:26:12;102027.69;;;4.60;100.00
46718;BME280;32448;44.960;-0.698;2023-01-27T08:28:40;102021.41;;;4.56;100.00
46718;BME280;32448;44.960;-0.698;2023-01-27T08:31:14;102026.78;;;4.59;100.00
46718;BME280;32448;44.960;-0.698;2023-01-27T08:33:44;102026.88;;;4.61;100.00
46718;BME280;32448;44.960;-0.698;2023-01-27T08:36:15;102037.13;;;4.59;100.00
46718;BME280;32448;44.960;-0.698;2023-01-27T08:38:44;102034.34;;;4.56;100.00
46718;BME280;32448;44.960;-0.698;2023-01-27T08:41:23;102028.78;;;4.63;100.00
46718;BME280;32448;44.960;-0.698;2023-01-27T08:43:56;102030.31;;;4.74;100.00
46718;BME280;32448;44.960;-0.698;2023-01-27T08:46:27;102030.91;;;4.70;100.00
46718;BME280;32448;44.960;-0.698;2023-01-27T08:48:57;102035.66;;;4.78;100.00
46718;BME280;32448;44.960;-0.698;2023-01-27T08:51:26;102041.97;;;4.96;100.00
46718;BME280;32448;44.960;-0.698;2023-01-27T08:53:57;102040.16;;;4.95;100.00
46718;BME280;32448;44.960;-0.698;2023-01-27T08:56:25;102044.97;;;4.89;100.00
46718;BME280;32448;44.960;-0.698;2023-01-27T08:58:54;102047.00;;;4.80;100.00
46718;BME280;32448;44.960;-0.698;2023-01-27T09:01:24;102029.56;;;4.77;100.00
46718;BME280;32448;44.960;-0.698;2023-01-27T09:03:53;102038.72;;;4.85;100.00
46718;BME280;32448;44.960;-0.698;2023-01-27T09:06:22;102047.19;;;4.83;100.00
46718;BME280;32448;44.960;-0.698;2023-01-27T09:08:50;102036.03;;;4.84;100.00
46718;BME280;32448;44.960;-0.698;2023-01-27T09:11:40;102047.84;;;4.93;100.00
46718;BME280;32448;44.960;-0.698;2023-01-27T09:14:10;102053.72;;;4.91;100.00
46718;BME280;32448;44.960;-0.698;2023-01-27T09:16:39;102049.09;;;5.00;100.00
46718;BME280;32448;44.960;-0.698;2023-01-27T09:19:11;102049.88;;;4.99;100.00
46718;BME280;32448;44.960;-0.698;2023-01-27T09:21:40;102051.78;;;5.01;100.00
46718;BME280;32448;44.960;-0.698;2023-01-27T09:24:08;102055.97;;;4.99;100.00
46718;BME280;32448;44.960;-0.698;2023-01-27T09:26:38;102058.41;;;5.11;100.00
46718;BME280;32448;44.960;-0.698;2023-01-27T09:29:06;102060.09;;;5.10;100.00
46718;BME280;32448;44.960;-0.698;2023-01-27T09:31:34;102063.94;;;5.32;100.00
46718;BME280;32448;44.960;-0.698;2023-01-27T09:34:02;102056.16;;;5.32;100.00
46718;BME280;32448;44.960;-0.698;2023-01-27T09:36:39;102055.00;;;5.41;100.00
46718;BME280;32448;44.960;-0.698;2023-01-27T09:39:11;102055.19;;;5.44;100.00
46718;BME280;32448;44.960;-0.698;2023-01-27T09:50:02;102055.84;;;5.40;100.00
46718;BME280;32448;44.960;-0.698;2023-01-27T09:57:49;102058.97;;;5.49;100.00
46718;BME280;32448;44.960;-0.698;2023-01-27T10:09:25;102081.84;;;5.57;100.00
46718;BME280;32448;44.960;-0.698;2023-01-27T10:20:34;102054.63;;;5.79;100.00
46718;BME280;32448;44.960;-0.698;2023-01-27T10:26:22;102079.22;;;6.01;100.00
46718;BME280;32448;44.960;-0.698;2023-01-27T10:29:01;102060.56;;;6.08;100.00
46718;BME280;32448;44.960;-0.698;2023-01-27T10:31:47;102068.31;;;6.22;100.00
46718;BME280;32448;44.960;-0.698;2023-01-27T10:34:27;102075.63;;;6.30;100.00
46718;BME280;32448;44.960;-0.698;2023-01-27T10:39:54;102065.22;;;6.30;100.00
46718;BME280;32448;44.960;-0.698;2023-01-27T10:42:39;102060.72;;;6.26;100.00
46718;BME280;32448;44.960;-0.698;2023-01-27T10:48:44;102044.13;;;6.07;100.00
46718;BME280;32448;44.960;-0.698;2023-01-27T10:51:37;102058.16;;;6.11;100.00
46718;BME280;32448;44.960;-0.698;2023-01-27T10:54:19;102052.72;;;6.06;100.00
46718;BME280;32448;44.960;-0.698;2023-01-27T10:56:57;102052.25;;;6.13;100.00
46718;BME280;32448;44.960;-0.698;2023-01-27T11:04:45;102041.72;;;6.43;100.00
46718;BME280;32448;44.960;-0.698;2023-01-27T11:07:17;102050.69;;;6.48;100.00
46718;BME280;32448;44.960;-0.698;2023-01-27T11:09:54;102042.72;;;6.45;100.00
46718;BME280;32448;44.960;-0.698;2023-01-27T11:12:29;102004.56;;;6.28;100.00
46718;BME280;32448;44.960;-0.698;2023-01-27T11:15:01;102006.00;;;6.22;100.00
46718;BME280;32448;44.960;-0.698;2023-01-27T11:17:41;102030.03;;;6.35;100.00
46718;BME280;32448;44.960;-0.698;2023-01-27T11:20:34;102019.25;;;6.27;100.00
46718;BME280;32448;44.960;-0.698;2023-01-27T11:37:23;102010.41;;;6.72;100.00
46718;BME280;32448;44.960;-0.698;2023-01-27T11:39:56;102007.56;;;6.68;100.00
46718;BME280;32448;44.960;-0.698;2023-01-27T11:42:32;102001.97;;;6.60;100.00
46718;BME280;32448;44.960;-0.698;2023-01-27T11:45:01;102002.06;;;6.62;100.00
46718;BME280;32448;44.960;-0.698;2023-01-27T11:47:35;102014.47;;;6.51;100.00
46718;BME280;32448;44.960;-0.698;2023-01-27T11:50:06;102009.75;;;6.28;100.00
46718;BME280;32448;44.960;-0.698;2023-01-27T11:52:36;102005.22;;;6.40;100.00
46718;BME280;32448;44.960;-0.698;2023-01-27T11:55:24;101996.59;;;6.41;100.00
46718;BME280;32448;44.960;-0.698;2023-01-27T11:58:09;101980.97;;;6.39;100.00
46718;BME280;32448;44.960;-0.698;2023-01-27T12:00:48;101969.94;;;6.27;100.00
46718;BME280;32448;44.960;-0.698;2023-01-27T12:06:15;101986.22;;;6.41;100.00
46718;BME280;32448;44.960;-0.698;2023-01-27T12:08:47;101972.09;;;6.36;100.00
46718;BME280;32448;44.960;-0.698;2023-01-27T12:11:26;101985.09;;;6.36;100.00
46718;BME280;32448;44.960;-0.698;2023-01-27T12:13:57;101990.69;;;6.43;100.00
46718;BME280;32448;44.960;-0.698;2023-01-27T12:16:49;101959.47;;;6.26;100.00
46718;BME280;32448;44.960;-0.698;2023-01-27T12:19:26;101960.66;;;6.16;100.00
46718;BME280;32448;44.960;-0.698;2023-01-27T12:22:07;101981.28;;;6.45;100.00
46718;BME280;32448;44.960;-0.698;2023-01-27T12:24:40;101956.19;;;6.30;100.00
46718;BME280;32448;44.960;-0.698;2023-01-27T12:27:27;101971.53;;;6.41;100.00
46718;BME280;32448;44.960;-0.698;2023-01-27T12:30:02;101964.88;;;6.46;100.00
46718;BME280;32448;44.960;-0.698;2023-01-27T12:32:40;101947.13;;;6.38;100.00
46718;BME280;32448;44.960;-0.698;2023-01-27T12:38:00;101960.03;;;6.36;100.00
46718;BME280;32448;44.960;-0.698;2023-01-27T12:40:31;101949.97;;;6.26;100.00
46718;BME280;32448;44.960;-0.698;2023-01-27T12:45:31;101934.81;;;6.17;100.00
46718;BME280;32448;44.960;-0.698;2023-01-27T12:50:40;101951.88;;;6.30;100.00
46718;BME280;32448;44.960;-0.698;2023-01-27T12:53:20;101938.69;;;6.26;100.00
46718;BME280;32448;44.960;-0.698;2023-01-27T12:56:14;101945.41;;;6.22;100.00
46718;BME280;32448;44.960;-0.698;2023-01-27T12:58:58;101943.38;;;6.33;100.00
46718;BME280;32448;44.960;-0.698;2023-01-27T13:01:32;101945.50;;;6.24;100.00
46718;BME280;32448;44.960;-0.698;2023-01-27T13:04:21;101944.28;;;6.17;100.00
46718;BME280;32448;44.960;-0.698;2023-01-27T13:09:29;101940.13;;;6.20;100.00
46718;BME280;32448;44.960;-0.698;2023-01-27T13:12:14;101913.88;;;6.14;100.00
46718;BME280;32448;44.960;-0.698;2023-01-27T13:14:44;101900.97;;;6.16;100.00
46718;BME280;32448;44.960;-0.698;2023-01-27T13:17:34;101922.06;;;6.38;100.00
46718;BME280;32448;44.960;-0.698;2023-01-27T13:20:29;101924.78;;;6.41;100.00
46718;BME280;32448;44.960;-0.698;2023-01-27T13:23:05;101922.34;;;6.44;100.00
46718;BME280;32448;44.960;-0.698;2023-01-27T13:25:43;101914.31;;;6.56;100.00
46718;BME280;32448;44.960;-0.698;2023-01-27T13:28:32;101885.56;;;6.53;100.00
46718;BME280;32448;44.960;-0.698;2023-01-27T13:34:26;101918.25;;;6.66;100.00
46718;BME280;32448;44.960;-0.698;2023-01-27T13:48:21;101895.78;;;6.66;100.00
46718;BME280;32448;44.960;-0.698;2023-01-27T13:51:08;101914.13;;;6.87;100.00
46718;BME280;32448;44.960;-0.698;2023-01-27T13:53:38;101916.81;;;6.88;100.00
46718;BME280;32448;44.960;-0.698;2023-01-27T14:04:41;101928.22;;;6.74;100.00
46718;BME280;32448;44.960;-0.698;2023-01-27T14:07:28;101930.69;;;6.55;100.00
46718;BME280;32448;44.960;-0.698;2023-01-27T14:13:47;101928.59;;;6.48;100.00
46718;BME280;32448;44.960;-0.698;2023-01-27T14:17:07;101926.56;;;6.42;100.00
46718;BME280;32448;44.960;-0.698;2023-01-27T14:22:26;101927.47;;;6.43;100.00
46718;BME280;32448;44.960;-0.698;2023-01-27T14:25:07;101930.47;;;6.50;100.00
46718;BME280;32448;44.960;-0.698;2023-01-27T14:27:54;101923.97;;;6.42;100.00
46718;BME280;32448;44.960;-0.698;2023-01-27T14:30:36;101927.00;;;6.34;100.00
46718;BME280;32448;44.960;-0.698;2023-01-27T14:36:11;101926.09;;;6.33;100.00
46718;BME280;32448;44.960;-0.698;2023-01-27T14:41:57;101931.53;;;6.38;100.00
46718;BME280;32448;44.960;-0.698;2023-01-27T14:47:22;101940.31;;;6.24;100.00
46718;BME280;32448;44.960;-0.698;2023-01-27T14:52:40;101947.53;;;6.29;100.00
46718;BME280;32448;44.960;-0.698;2023-01-27T14:58:35;101958.78;;;6.30;100.00
46718;BME280;32448;44.960;-0.698;2023-01-27T15:01:16;101958.16;;;6.34;100.00
46718;BME280;32448;44.960;-0.698;2023-01-27T15:10:27;101935.59;;;6.16;100.00
46718;BME280;32448;44.960;-0.698;2023-01-27T15:21:28;101965.13;;;6.35;100.00
46718;BME280;32448;44.960;-0.698;2023-01-27T15:24:18;101971.53;;;6.41;100.00
46718;BME280;32448;44.960;-0.698;2023-01-27T15:26:52;101966.66;;;6.31;100.00
46718;BME280;32448;44.960;-0.698;2023-01-27T15:29:29;101979.25;;;6.24;100.00